sensor_id;sensor_type;location;lat;lon;timestamp;temperature;humidity
2767;DHT22;1391;46.74287300;11.63683300;2024-03-07T00:00:33;3.40;99.90
2767;DHT22;1391;46.74287300;11.63683300;2024-03-07T00:03:01;3.40;99.90
2767;DHT22;1391;46.74287300;11.63683300;2024-03-07T00:05:29;3.50;99.90
2767;DHT22;1391;46.74287300;11.63683300;2024-03-07T00:07:56;3.40;99.90
2767;DHT22;1391;46.74287300;11.63683300;2024-03-07T00:10:24;2.80;99.90
2767;DHT22;1391;46.74287300;11.63683300;2024-03-07T00:12:52;2.50;99.90
2767;DHT22;1391;46.74287300;11.63683300;2024-03-07T00:15:20;2.80;99.90
2767;DHT22;1391;46.74287300;11.63683300;2024-03-07T00:17:49;3.40;99.90
2767;DHT22;1391;46.74287300;11.63683300;2024-03-07T00:20:16;3.10;99.90
2767;DHT22;1391;46.74287300;11.63683300;2024-03-07T00:22:45;3.40;99.90
2767;DHT22;1391;46.74287300;11.63683300;2024-03-07T00:25:12;2.90;99.90
2767;DHT22;1391;46.74287300;11.63683300;2024-03-07T00:27:40;3.40;99.90
2767;DHT22;1391;46.74287300;11.63683300;2024-03-07T00:30:11;2.80;99.90
2767;DHT22;1391;46.74287300;11.63683300;2024-03-07T00:32:39;3.20;99.90
2767;DHT22;1391;46.74287300;11.63683300;2024-03-07T00:35:08;2.90;99.90
2767;DHT22;1391;46.74287300;11.63683300;2024-03-07T00:37:36;3.10;99.90
2767;DHT22;1391;46.74287300;11.63683300;2024-03-07T00:40:03;3.10;99.90
2767;DHT22;1391;46.74287300;11.63683300;2024-03-07T00:42:31;3.20;99.90
2767;DHT22;1391;46.74287300;11.63683300;2024-03-07T00:44:59;3.00;99.90
2767;DHT22;1391;46.74287300;11.63683300;2024-03-07T00:47:26;2.80;99.90
2767;DHT22;1391;46.74287300;11.63683300;2024-03-07T00:49:54;3.20;99.90
2767;DHT22;1391;46.74287300;11.63683300;2024-03-07T00:52:22;3.00;99.90
2767;DHT22;1391;46.74287300;11.63683300;2024-03-07T00:54:51;2.70;99.90
2767;DHT22;1391;46.74287300;11.63683300;2024-03-07T00:57:43;3.10;99.90
2767;DHT22;1391;46.74287300;11.63683300;2024-03-07T01:00:12;3.40;99.90
2767;DHT22;1391;46.74287300;11.63683300;2024-03-07T01:02:43;2.80;99.90
2767;DHT22;1391;46.74287300;11.63683300;2024-03-07T01:05:11;3.20;99.90
2767;DHT22;1391;46.74287300;11.63683300;2024-03-07T01:07:41;3.10;99.90
2767;DHT22;1391;46.74287300;11.63683300;2024-03-07T01:10:08;3.30;99.90
2767;DHT22;1391;46.74287300;11.63683300;2024-03-07T01:12:36;3.40;99.90
2767;DHT22;1391;46.74287300;11.63683300;2024-03-07T01:15:04;3.50;99.90
2767;DHT22;1391;46.74287300;11.63683300;2024-03-07T01:17:32;3.40;99.90
2767;DHT22;1391;46.74287300;11.63683300;2024-03-07T01:19:59;2.80;99.90
2767;DHT22;1391;46.74287300;11.63683300;2024-03-07T01:22:30;3.20;99.90
2767;DHT22;1391;46.74287300;11.63683300;2024-03-07T01:24:58;3.00;99.90
2767;DHT22;1391;46.74287300;11.63683300;2024-03-07T01:27:26;3.40;99.90
2767;DHT22;1391;46.74287300;11.63683300;2024-03-07T01:29:53;3.10;99.90
2767;DHT22;1391;46.74287300;11.63683300;2024-03-07T01:32:20;3.40;99.90
2767;DHT22;1391;46.74287300;11.63683300;2024-03-07T01:34:48;3.10;99.90
2767;DHT22;1391;46.74287300;11.63683300;2024-03-07T01:37:15;3.40;99.90
2767;DHT22;1391;46.74287300;11.63683300;2024-03-07T01:39:42;3.10;99.90
2767;DHT22;1391;46.74287300;11.63683300;2024-03-07T01:42:11;3.30;99.90
2767;DHT22;1391;46.74287300;11.63683300;2024-03-07T01:44:38;3.50;99.90
2767;DHT22;1391;46.74287300;11.63683300;2024-03-07T01:47:06;3.40;99.90
2767;DHT22;1391;46.74287300;11.63683300;2024-03-07T01:49:34;3.10;99.90
2767;DHT22;1391;46.74287300;11.63683300;2024-03-07T01:52:01;2.70;99.90
2767;DHT22;1391;46.74287300;11.63683300;2024-03-07T01:54:32;3.10;99.90
2767;DHT22;1391;46.74287300;11.63683300;2024-03-07T01:56:59;2.40;99.90
2767;DHT22;1391;46.74287300;11.63683300;2024-03-07T01:59:29;2.50;99.90
2767;DHT22;1391;46.74287300;11.63683300;2024-03-07T02:01:58;2.40;99.90
2767;DHT22;1391;46.74287300;11.63683300;2024-03-07T02:04:27;2.60;99.90
2767;DHT22;1391;46.74287300;11.63683300;2024-03-07T02:06:55;2.50;99.90
2767;DHT22;1391;46.74287300;11.63683300;2024-03-07T02:09:24;2.40;99.90
2767;DHT22;1391;46.74287300;11.63683300;2024-03-07T02:11:51;1.80;99.90
2767;DHT22;1391;46.74287300;11.63683300;2024-03-07T02:14:18;1.80;99.90
2767;DHT22;1391;46.74287300;11.63683300;2024-03-07T02:16:47;1.90;99.90
2767;DHT22;1391;46.74287300;11.63683300;2024-03-07T02:19:15;1.80;99.90
2767;DHT22;1391;46.74287300;11.63683300;2024-03-07T02:21:45;1.90;99.90
2767;DHT22;1391;46.74287300;11.63683300;2024-03-07T02:24:12;1.80;99.90
2767;DHT22;1391;46.74287300;11.63683300;2024-03-07T02:26:39;1.90;99.90
2767;DHT22;1391;46.74287300;11.63683300;2024-03-07T02:29:07;1.80;99.90
2767;DHT22;1391;46.74287300;11.63683300;2024-03-07T02:31:34;1.80;99.90
2767;DHT22;1391;46.74287300;11.63683300;2024-03-07T02:34:07;1.80;99.90
2767;DHT22;1391;46.74287300;11.63683300;2024-03-07T02:36:34;1.90;99.90
2767;DHT22;1391;46.74287300;11.63683300;2024-03-07T02:39:03;1.80;99.90
2767;DHT22;1391;46.74287300;11.63683300;2024-03-07T02:41:32;1.90;99.90
2767;DHT22;1391;46.74287300;11.63683300;2024-03-07T02:43:59;1.80;99.90
2767;DHT22;1391;46.74287300;11.63683300;2024-03-07T02:46:29;1.80;99.90
2767;DHT22;1391;46.74287300;11.63683300;2024-03-07T02:48:58;1.90;99.90
2767;DHT22;1391;46.74287300;11.63683300;2024-03-07T02:51:25;1.80;99.90
2767;DHT22;1391;46.74287300;11.63683300;2024-03-07T02:53:53;1.80;99.90
2767;DHT22;1391;46.74287300;11.63683300;2024-03-07T02:56:21;1.90;99.90
2767;DHT22;1391;46.74287300;11.63683300;2024-03-07T02:58:49;2.60;99.90
2767;DHT22;1391;46.74287300;11.63683300;2024-03-07T03:01:16;2.70;99.90
2767;DHT22;1391;46.74287300;11.63683300;2024-03-07T03:03:43;2.00;99.90
2767;DHT22;1391;46.74287300;11.63683300;2024-03-07T03:06:10;1.80;99.90
2767;DHT22;1391;46.74287300;11.63683300;2024-03-07T03:08:38;1.80;99.90
2767;DHT22;1391;46.74287300;11.63683300;2024-03-07T03:11:05;1.70;99.90
2767;DHT22;1391;46.74287300;11.63683300;2024-03-07T03:13:37;1.60;99.90
2767;DHT22;1391;46.74287300;11.63683300;2024-03-07T03:16:05;1.30;99.90
2767;DHT22;1391;46.74287300;11.63683300;2024-03-07T03:18:34;1.40;99.90
2767;DHT22;1391;46.74287300;11.63683300;2024-03-07T03:21:02;1.20;99.90
2767;DHT22;1391;46.74287300;11.63683300;2024-03-07T03:23:30;1.30;99.90
2767;DHT22;1391;46.74287300;11.63683300;2024-03-07T03:25:57;1.50;99.90
2767;DHT22;1391;46.74287300;11.63683300;2024-03-07T03:28:25;1.50;99.90
2767;DHT22;1391;46.74287300;11.63683300;2024-03-07T03:30:54;1.40;99.90
2767;DHT22;1391;46.74287300;11.63683300;2024-03-07T03:33:21;1.30;99.90
2767;DHT22;1391;46.74287300;11.63683300;2024-03-07T03:35:48;1.50;99.90
2767;DHT22;1391;46.74287300;11.63683300;2024-03-07T03:38:15;1.50;99.90
2767;DHT22;1391;46.74287300;11.63683300;2024-03-07T03:40:43;1.40;99.90
2767;DHT22;1391;46.74287300;11.63683300;2024-03-07T03:43:11;1.10;99.90
2767;DHT22;1391;46.74287300;11.63683300;2024-03-07T03:45:38;1.00;99.90
2767;DHT22;1391;46.74287300;11.63683300;2024-03-07T03:48:07;1.40;99.90
2767;DHT22;1391;46.74287300;11.63683300;2024-03-07T03:50:34;1.10;99.90
2767;DHT22;1391;46.74287300;11.63683300;2024-03-07T03:53:02;1.10;99.90
2767;DHT22;1391;46.74287300;11.63683300;2024-03-07T03:55:29;1.20;99.90
2767;DHT22;1391;46.74287300;11.63683300;2024-03-07T03:57:58;1.30;99.90
2767;DHT22;1391;46.74287300;11.63683300;2024-03-07T04:00:25;1.50;99.90
2767;DHT22;1391;46.74287300;11.63683300;2024-03-07T04:02:52;0.90;99.90
2767;DHT22;1391;46.74287300;11.63683300;2024-03-07T04:05:21;1.20;99.90
2767;DHT22;1391;46.74287300;11.63683300;2024-03-07T04:07:48;1.10;99.90
2767;DHT22;1391;46.74287300;11.63683300;2024-03-07T04:10:17;1.00;99.90
2767;DHT22;1391;46.74287300;11.63683300;2024-03-07T04:12:44;1.20;99.90
2767;DHT22;1391;46.74287300;11.63683300;2024-03-07T04:15:14;1.20;99.90
2767;DHT22;1391;46.74287300;11.63683300;2024-03-07T04:17:42;1.10;99.90
2767;DHT22;1391;46.74287300;11.63683300;2024-03-07T04:20:10;1.20;99.90
2767;DHT22;1391;46.74287300;11.63683300;2024-03-07T04:22:41;1.10;99.90
2767;DHT22;1391;46.74287300;11.63683300;2024-03-07T04:25:09;1.10;99.90
2767;DHT22;1391;46.74287300;11.63683300;2024-03-07T04:27:36;1.00;99.90
2767;DHT22;1391;46.74287300;11.63683300;2024-03-07T04:30:06;1.20;99.90
2767;DHT22;1391;46.74287300;11.63683300;2024-03-07T04:32:36;1.10;99.90
2767;DHT22;1391;46.74287300;11.63683300;2024-03-07T04:35:04;1.00;99.90
2767;DHT22;1391;46.74287300;11.63683300;2024-03-07T04:37:35;0.80;99.90
2767;DHT22;1391;46.74287300;11.63683300;2024-03-07T04:40:06;0.60;99.90
2767;DHT22;1391;46.74287300;11.63683300;2024-03-07T04:42:41;0.70;99.90
2767;DHT22;1391;46.74287300;11.63683300;2024-03-07T04:45:10;1.10;99.90
2767;DHT22;1391;46.74287300;11.63683300;2024-03-07T04:47:39;1.10;99.90
2767;DHT22;1391;46.74287300;11.63683300;2024-03-07T04:50:07;0.90;99.90
2767;DHT22;1391;46.74287300;11.63683300;2024-03-07T04:52:36;0.70;99.90
2767;DHT22;1391;46.74287300;11.63683300;2024-03-07T04:55:07;0.90;99.90
2767;DHT22;1391;46.74287300;11.63683300;2024-03-07T04:57:36;0.90;99.90
2767;DHT22;1391;46.74287300;11.63683300;2024-03-07T05:00:05;1.10;99.90
2767;DHT22;1391;46.74287300;11.63683300;2024-03-07T05:02:39;1.10;99.90
2767;DHT22;1391;46.74287300;11.63683300;2024-03-07T05:05:06;1.10;99.90
2767;DHT22;1391;46.74287300;11.63683300;2024-03-07T05:07:34;0.90;99.90
2767;DHT22;1391;46.74287300;11.63683300;2024-03-07T05:10:02;0.90;99.90
2767;DHT22;1391;46.74287300;11.63683300;2024-03-07T05:12:32;1.10;99.90
2767;DHT22;1391;46.74287300;11.63683300;2024-03-07T05:14:59;0.80;99.90
2767;DHT22;1391;46.74287300;11.63683300;2024-03-07T05:17:26;1.00;99.90
2767;DHT22;1391;46.74287300;11.63683300;2024-03-07T05:19:54;0.80;99.90
2767;DHT22;1391;46.74287300;11.63683300;2024-03-07T05:22:21;1.00;99.90
2767;DHT22;1391;46.74287300;11.63683300;2024-03-07T05:24:51;1.10;99.90
2767;DHT22;1391;46.74287300;11.63683300;2024-03-07T05:27:19;0.60;99.90
2767;DHT22;1391;46.74287300;11.63683300;2024-03-07T05:29:48;1.00;99.90
2767;DHT22;1391;46.74287300;11.63683300;2024-03-07T05:32:20;1.10;99.90
2767;DHT22;1391;46.74287300;11.63683300;2024-03-07T05:34:49;0.60;99.90
2767;DHT22;1391;46.74287300;11.63683300;2024-03-07T05:37:17;1.10;99.90
2767;DHT22;1391;46.74287300;11.63683300;2024-03-07T05:39:45;0.90;99.90
2767;DHT22;1391;46.74287300;11.63683300;2024-03-07T05:42:12;1.00;99.90
2767;DHT22;1391;46.74287300;11.63683300;2024-03-07T05:44:40;0.60;99.90
2767;DHT22;1391;46.74287300;11.63683300;2024-03-07T05:47:09;1.00;99.90
2767;DHT22;1391;46.74287300;11.63683300;2024-03-07T05:49:39;1.00;99.90
2767;DHT22;1391;46.74287300;11.63683300;2024-03-07T05:52:07;1.10;99.90
2767;DHT22;1391;46.74287300;11.63683300;2024-03-07T05:54:34;0.90;99.90
2767;DHT22;1391;46.74287300;11.63683300;2024-03-07T05:57:02;1.00;99.90
2767;DHT22;1391;46.74287300;11.63683300;2024-03-07T05:59:31;0.40;99.90
2767;DHT22;1391;46.74287300;11.63683300;2024-03-07T06:01:59;1.10;99.90
2767;DHT22;1391;46.74287300;11.63683300;2024-03-07T06:04:27;0.90;99.90
2767;DHT22;1391;46.74287300;11.63683300;2024-03-07T06:06:55;0.90;99.90
2767;DHT22;1391;46.74287300;11.63683300;2024-03-07T06:09:22;1.00;99.90
2767;DHT22;1391;46.74287300;11.63683300;2024-03-07T06:11:49;1.10;99.90
2767;DHT22;1391;46.74287300;11.63683300;2024-03-07T06:14:17;0.80;99.90
2767;DHT22;1391;46.74287300;11.63683300;2024-03-07T06:16:45;1.10;99.90
2767;DHT22;1391;46.74287300;11.63683300;2024-03-07T06:19:12;0.80;99.90
2767;DHT22;1391;46.74287300;11.63683300;2024-03-07T06:21:41;1.10;99.90
2767;DHT22;1391;46.74287300;11.63683300;2024-03-07T06:24:09;0.80;99.90
2767;DHT22;1391;46.74287300;11.63683300;2024-03-07T06:26:40;1.30;99.90
2767;DHT22;1391;46.74287300;11.63683300;2024-03-07T06:29:25;1.30;99.90
2767;DHT22;1391;46.74287300;11.63683300;2024-03-07T06:31:53;1.30;99.90
2767;DHT22;1391;46.74287300;11.63683300;2024-03-07T06:34:20;1.30;99.90
2767;DHT22;1391;46.74287300;11.63683300;2024-03-07T06:36:49;1.40;99.90
2767;DHT22;1391;46.74287300;11.63683300;2024-03-07T06:39:16;0.80;99.90
2767;DHT22;1391;46.74287300;11.63683300;2024-03-07T06:41:47;1.10;99.90
2767;DHT22;1391;46.74287300;11.63683300;2024-03-07T06:44:14;0.80;99.90
2767;DHT22;1391;46.74287300;11.63683300;2024-03-07T06:46:43;1.30;99.90
2767;DHT22;1391;46.74287300;11.63683300;2024-03-07T06:49:11;1.10;99.90
2767;DHT22;1391;46.74287300;11.63683300;2024-03-07T06:51:38;1.10;99.90
2767;DHT22;1391;46.74287300;11.63683300;2024-03-07T06:54:07;1.10;99.90
2767;DHT22;1391;46.74287300;11.63683300;2024-03-07T06:56:34;1.10;99.90
2767;DHT22;1391;46.74287300;11.63683300;2024-03-07T06:59:02;1.10;99.90
2767;DHT22;1391;46.74287300;11.63683300;2024-03-07T07:01:30;1.10;99.90
2767;DHT22;1391;46.74287300;11.63683300;2024-03-07T07:03:58;1.00;99.90
2767;DHT22;1391;46.74287300;11.63683300;2024-03-07T07:06:29;1.30;99.90
2767;DHT22;1391;46.74287300;11.63683300;2024-03-07T07:08:57;1.30;99.90
2767;DHT22;1391;46.74287300;11.63683300;2024-03-07T07:11:29;1.00;99.90
2767;DHT22;1391;46.74287300;11.63683300;2024-03-07T07:13:56;1.30;99.90
2767;DHT22;1391;46.74287300;11.63683300;2024-03-07T07:16:24;1.00;99.90
2767;DHT22;1391;46.74287300;11.63683300;2024-03-07T07:18:51;1.20;99.90
2767;DHT22;1391;46.74287300;11.63683300;2024-03-07T07:21:19;1.70;99.90
2767;DHT22;1391;46.74287300;11.63683300;2024-03-07T07:23:47;1.30;99.90
2767;DHT22;1391;46.74287300;11.63683300;2024-03-07T07:26:14;1.60;99.90
2767;DHT22;1391;46.74287300;11.63683300;2024-03-07T07:28:43;1.40;99.90
2767;DHT22;1391;46.74287300;11.63683300;2024-03-07T07:31:10;1.70;99.90
2767;DHT22;1391;46.74287300;11.63683300;2024-03-07T07:33:37;1.90;99.90
2767;DHT22;1391;46.74287300;11.63683300;2024-03-07T07:36:05;1.90;99.90
2767;DHT22;1391;46.74287300;11.63683300;2024-03-07T07:38:32;1.90;99.90
2767;DHT22;1391;46.74287300;11.63683300;2024-03-07T07:40:59;1.80;99.90
2767;DHT22;1391;46.74287300;11.63683300;2024-03-07T07:43:27;1.90;99.90
2767;DHT22;1391;46.74287300;11.63683300;2024-03-07T07:45:56;1.90;99.90
2767;DHT22;1391;46.74287300;11.63683300;2024-03-07T07:48:23;2.10;99.90
2767;DHT22;1391;46.74287300;11.63683300;2024-03-07T07:50:50;1.90;99.90
2767;DHT22;1391;46.74287300;11.63683300;2024-03-07T07:53:18;2.00;99.90
2767;DHT22;1391;46.74287300;11.63683300;2024-03-07T07:55:45;2.10;99.90
2767;DHT22;1391;46.74287300;11.63683300;2024-03-07T07:58:14;2.30;99.90
2767;DHT22;1391;46.74287300;11.63683300;2024-03-07T08:00:42;2.50;99.90
2767;DHT22;1391;46.74287300;11.63683300;2024-03-07T08:03:11;2.50;99.90
2767;DHT22;1391;46.74287300;11.63683300;2024-03-07T08:05:41;2.50;99.90
2767;DHT22;1391;46.74287300;11.63683300;2024-03-07T08:08:09;2.50;99.90
2767;DHT22;1391;46.74287300;11.63683300;2024-03-07T08:10:39;2.60;99.90
2767;DHT22;1391;46.74287300;11.63683300;2024-03-07T08:13:07;2.70;99.90
2767;DHT22;1391;46.74287300;11.63683300;2024-03-07T08:15:36;3.10;99.90
2767;DHT22;1391;46.74287300;11.63683300;2024-03-07T08:18:04;2.90;99.90
2767;DHT22;1391;46.74287300;11.63683300;2024-03-07T08:20:35;2.90;99.90
2767;DHT22;1391;46.74287300;11.63683300;2024-03-07T08:23:03;3.10;99.90
2767;DHT22;1391;46.74287300;11.63683300;2024-03-07T08:25:31;3.50;99.90
2767;DHT22;1391;46.74287300;11.63683300;2024-03-07T08:27:58;3.20;99.90
2767;DHT22;1391;46.74287300;11.63683300;2024-03-07T08:30:27;3.60;99.90
2767;DHT22;1391;46.74287300;11.63683300;2024-03-07T08:32:56;4.00;99.90
2767;DHT22;1391;46.74287300;11.63683300;2024-03-07T08:35:25;4.10;99.90
2767;DHT22;1391;46.74287300;11.63683300;2024-03-07T08:37:55;4.30;99.90
2767;DHT22;1391;46.74287300;11.63683300;2024-03-07T08:40:24;4.50;99.90
2767;DHT22;1391;46.74287300;11.63683300;2024-03-07T08:42:56;4.80;99.90
2767;DHT22;1391;46.74287300;11.63683300;2024-03-07T08:45:24;4.30;99.90
2767;DHT22;1391;46.74287300;11.63683300;2024-03-07T08:47:53;4.20;99.90
2767;DHT22;1391;46.74287300;11.63683300;2024-03-07T08:50:22;5.00;99.90
2767;DHT22;1391;46.74287300;11.63683300;2024-03-07T08:52:50;5.30;99.90
2767;DHT22;1391;46.74287300;11.63683300;2024-03-07T08:55:20;5.40;99.90
2767;DHT22;1391;46.74287300;11.63683300;2024-03-07T08:57:50;5.60;99.90
2767;DHT22;1391;46.74287300;11.63683300;2024-03-07T09:00:19;6.20;99.90
2767;DHT22;1391;46.74287300;11.63683300;2024-03-07T09:02:50;6.30;99.90
2767;DHT22;1391;46.74287300;11.63683300;2024-03-07T09:05:19;6.70;99.90
2767;DHT22;1391;46.74287300;11.63683300;2024-03-07T09:07:48;7.10;99.90
2767;DHT22;1391;46.74287300;11.63683300;2024-03-07T09:10:17;7.30;99.90
2767;DHT22;1391;46.74287300;11.63683300;2024-03-07T09:12:45;8.00;99.90
2767;DHT22;1391;46.74287300;11.63683300;2024-03-07T09:15:14;7.40;99.90
2767;DHT22;1391;46.74287300;11.63683300;2024-03-07T09:17:43;7.70;99.90
2767;DHT22;1391;46.74287300;11.63683300;2024-03-07T09:20:11;7.90;99.90
2767;DHT22;1391;46.74287300;11.63683300;2024-03-07T09:22:41;8.20;99.90
2767;DHT22;1391;46.74287300;11.63683300;2024-03-07T09:25:09;8.90;99.90
2767;DHT22;1391;46.74287300;11.63683300;2024-03-07T09:27:40;8.80;71.50
2767;DHT22;1391;46.74287300;11.63683300;2024-03-07T09:30:08;9.50;70.20
2767;DHT22;1391;46.74287300;11.63683300;2024-03-07T09:32:38;9.80;60.40
2767;DHT22;1391;46.74287300;11.63683300;2024-03-07T09:35:07;10.10;44.80
2767;DHT22;1391;46.74287300;11.63683300;2024-03-07T09:37:38;10.00;49.70
2767;DHT22;1391;46.74287300;11.63683300;2024-03-07T09:40:07;9.60;24.70
2767;DHT22;1391;46.74287300;11.63683300;2024-03-07T09:42:44;9.50;28.30
2767;DHT22;1391;46.74287300;11.63683300;2024-03-07T09:45:19;10.20;26.70
2767;DHT22;1391;46.74287300;11.63683300;2024-03-07T09:47:48;9.50;15.90
2767;DHT22;1391;46.74287300;11.63683300;2024-03-07T09:50:18;9.80;15.60
2767;DHT22;1391;46.74287300;11.63683300;2024-03-07T09:52:48;9.60;19.00
2767;DHT22;1391;46.74287300;11.63683300;2024-03-07T09:55:16;9.70;12.20
2767;DHT22;1391;46.74287300;11.63683300;2024-03-07T09:57:47;9.60;13.70
2767;DHT22;1391;46.74287300;11.63683300;2024-03-07T10:00:18;9.40;9.20
2767;DHT22;1391;46.74287300;11.63683300;2024-03-07T10:02:54;9.60;8.00
2767;DHT22;1391;46.74287300;11.63683300;2024-03-07T10:05:27;9.70;6.30
2767;DHT22;1391;46.74287300;11.63683300;2024-03-07T10:07:55;9.30;7.70
2767;DHT22;1391;46.74287300;11.63683300;2024-03-07T10:10:23;9.80;4.10
2767;DHT22;1391;46.74287300;11.63683300;2024-03-07T10:12:53;10.00;5.70
2767;DHT22;1391;46.74287300;11.63683300;2024-03-07T10:15:20;9.90;4.40
2767;DHT22;1391;46.74287300;11.63683300;2024-03-07T10:17:48;10.30;1.00
2767;DHT22;1391;46.74287300;11.63683300;2024-03-07T10:20:19;10.40;4.80
2767;DHT22;1391;46.74287300;11.63683300;2024-03-07T10:22:47;10.50;1.00
2767;DHT22;1391;46.74287300;11.63683300;2024-03-07T10:25:17;10.20;5.50
2767;DHT22;1391;46.74287300;11.63683300;2024-03-07T10:27:46;10.30;3.70
2767;DHT22;1391;46.74287300;11.63683300;2024-03-07T10:30:16;11.20;1.00
2767;DHT22;1391;46.74287300;11.63683300;2024-03-07T10:33:06;11.30;1.00
2767;DHT22;1391;46.74287300;11.63683300;2024-03-07T10:35:34;11.10;1.00
2767;DHT22;1391;46.74287300;11.63683300;2024-03-07T10:38:01;12.30;4.90
2767;DHT22;1391;46.74287300;11.63683300;2024-03-07T10:40:32;11.90;1.00
2767;DHT22;1391;46.74287300;11.63683300;2024-03-07T10:43:01;12.40;3.40
2767;DHT22;1391;46.74287300;11.63683300;2024-03-07T10:45:42;12.40;1.00
2767;DHT22;1391;46.74287300;11.63683300;2024-03-07T10:48:13;12.30;1.00
2767;DHT22;1391;46.74287300;11.63683300;2024-03-07T10:50:50;12.30;1.00
2767;DHT22;1391;46.74287300;11.63683300;2024-03-07T10:53:31;11.90;1.00
2767;DHT22;1391;46.74287300;11.63683300;2024-03-07T10:56:18;12.00;1.00
2767;DHT22;1391;46.74287300;11.63683300;2024-03-07T10:58:57;12.30;1.00
2767;DHT22;1391;46.74287300;11.63683300;2024-03-07T11:01:31;12.30;1.00
2767;DHT22;1391;46.74287300;11.63683300;2024-03-07T11:04:00;12.00;1.00
2767;DHT22;1391;46.74287300;11.63683300;2024-03-07T11:06:30;13.30;1.00
2767;DHT22;1391;46.74287300;11.63683300;2024-03-07T11:09:00;13.40;1.00
2767;DHT22;1391;46.74287300;11.63683300;2024-03-07T11:11:29;13.00;1.00
2767;DHT22;1391;46.74287300;11.63683300;2024-03-07T11:13:57;12.90;1.00
2767;DHT22;1391;46.74287300;11.63683300;2024-03-07T11:16:27;13.50;1.00
2767;DHT22;1391;46.74287300;11.63683300;2024-03-07T11:19:20;13.50;1.00
2767;DHT22;1391;46.74287300;11.63683300;2024-03-07T11:21:53;13.50;1.00
2767;DHT22;1391;46.74287300;11.63683300;2024-03-07T11:24:25;14.10;1.00
2767;DHT22;1391;46.74287300;11.63683300;2024-03-07T11:26:55;14.70;1.00
2767;DHT22;1391;46.74287300;11.63683300;2024-03-07T11:29:43;14.60;1.00
2767;DHT22;1391;46.74287300;11.63683300;2024-03-07T11:32:20;13.90;1.00
2767;DHT22;1391;46.74287300;11.63683300;2024-03-07T11:34:48;14.50;1.00
2767;DHT22;1391;46.74287300;11.63683300;2024-03-07T11:37:19;13.50;1.00
2767;DHT22;1391;46.74287300;11.63683300;2024-03-07T11:39:50;13.40;1.00
2767;DHT22;1391;46.74287300;11.63683300;2024-03-07T11:42:25;13.60;1.00
2767;DHT22;1391;46.74287300;11.63683300;2024-03-07T11:44:55;14.60;1.00
2767;DHT22;1391;46.74287300;11.63683300;2024-03-07T11:47:25;13.80;1.00
2767;DHT22;1391;46.74287300;11.63683300;2024-03-07T11:49:55;13.50;1.00
2767;DHT22;1391;46.74287300;11.63683300;2024-03-07T11:52:24;13.10;1.00
2767;DHT22;1391;46.74287300;11.63683300;2024-03-07T11:54:53;12.70;1.00
2767;DHT22;1391;46.74287300;11.63683300;2024-03-07T11:57:29;12.50;1.00
2767;DHT22;1391;46.74287300;11.63683300;2024-03-07T11:59:59;12.60;1.00
2767;DHT22;1391;46.74287300;11.63683300;2024-03-07T12:02:37;12.10;1.00
2767;DHT22;1391;46.74287300;11.63683300;2024-03-07T12:05:05;12.00;1.00
2767;DHT22;1391;46.74287300;11.63683300;2024-03-07T12:07:32;12.20;1.00
2767;DHT22;1391;46.74287300;11.63683300;2024-03-07T12:10:00;12.10;1.00
2767;DHT22;1391;46.74287300;11.63683300;2024-03-07T12:12:30;12.10;1.00
2767;DHT22;1391;46.74287300;11.63683300;2024-03-07T12:14:58;11.70;1.00
2767;DHT22;1391;46.74287300;11.63683300;2024-03-07T12:17:27;12.10;1.00
2767;DHT22;1391;46.74287300;11.63683300;2024-03-07T12:19:57;12.00;1.00
2767;DHT22;1391;46.74287300;11.63683300;2024-03-07T12:22:27;11.50;1.00
2767;DHT22;1391;46.74287300;11.63683300;2024-03-07T12:25:03;11.60;1.00
2767;DHT22;1391;46.74287300;11.63683300;2024-03-07T12:27:34;11.60;1.00
2767;DHT22;1391;46.74287300;11.63683300;2024-03-07T12:30:15;11.60;1.00
2767;DHT22;1391;46.74287300;11.63683300;2024-03-07T12:32:48;11.20;1.00
2767;DHT22;1391;46.74287300;11.63683300;2024-03-07T12:35:17;11.30;1.00
2767;DHT22;1391;46.74287300;11.63683300;2024-03-07T12:37:45;11.60;1.00
2767;DHT22;1391;46.74287300;11.63683300;2024-03-07T12:40:14;11.30;1.00
2767;DHT22;1391;46.74287300;11.63683300;2024-03-07T12:42:46;11.20;1.00
2767;DHT22;1391;46.74287300;11.63683300;2024-03-07T12:45:16;10.90;1.00
2767;DHT22;1391;46.74287300;11.63683300;2024-03-07T12:47:45;11.10;1.00
2767;DHT22;1391;46.74287300;11.63683300;2024-03-07T12:50:18;11.50;1.00
2767;DHT22;1391;46.74287300;11.63683300;2024-03-07T12:52:46;12.60;1.00
2767;DHT22;1391;46.74287300;11.63683300;2024-03-07T12:55:15;12.40;1.00
2767;DHT22;1391;46.74287300;11.63683300;2024-03-07T12:57:47;13.00;1.00
2767;DHT22;1391;46.74287300;11.63683300;2024-03-07T13:00:16;12.80;1.00
2767;DHT22;1391;46.74287300;11.63683300;2024-03-07T13:02:46;13.00;1.00
2767;DHT22;1391;46.74287300;11.63683300;2024-03-07T13:05:15;12.60;1.00
2767;DHT22;1391;46.74287300;11.63683300;2024-03-07T13:07:49;13.10;1.00
2767;DHT22;1391;46.74287300;11.63683300;2024-03-07T13:10:16;12.80;1.00
2767;DHT22;1391;46.74287300;11.63683300;2024-03-07T13:12:46;12.60;1.00
2767;DHT22;1391;46.74287300;11.63683300;2024-03-07T13:15:14;13.00;1.00
2767;DHT22;1391;46.74287300;11.63683300;2024-03-07T13:17:42;13.50;1.00
2767;DHT22;1391;46.74287300;11.63683300;2024-03-07T13:20:11;13.50;1.00
2767;DHT22;1391;46.74287300;11.63683300;2024-03-07T13:22:40;13.50;1.00
2767;DHT22;1391;46.74287300;11.63683300;2024-03-07T13:25:13;13.40;1.00
2767;DHT22;1391;46.74287300;11.63683300;2024-03-07T13:27:50;13.50;1.00
2767;DHT22;1391;46.74287300;11.63683300;2024-03-07T13:30:21;13.50;1.00
2767;DHT22;1391;46.74287300;11.63683300;2024-03-07T13:32:54;13.40;1.00
2767;DHT22;1391;46.74287300;11.63683300;2024-03-07T13:35:22;13.20;1.00
2767;DHT22;1391;46.74287300;11.63683300;2024-03-07T13:37:51;13.10;1.00
2767;DHT22;1391;46.74287300;11.63683300;2024-03-07T13:40:22;12.40;1.00
2767;DHT22;1391;46.74287300;11.63683300;2024-03-07T13:42:52;13.00;1.00
2767;DHT22;1391;46.74287300;11.63683300;2024-03-07T13:45:24;12.50;1.00
2767;DHT22;1391;46.74287300;11.63683300;2024-03-07T13:47:53;12.50;1.00
2767;DHT22;1391;46.74287300;11.63683300;2024-03-07T13:50:25;12.60;1.00
2767;DHT22;1391;46.74287300;11.63683300;2024-03-07T13:52:55;12.00;1.00
2767;DHT22;1391;46.74287300;11.63683300;2024-03-07T13:55:55;12.20;1.00
2767;DHT22;1391;46.74287300;11.63683300;2024-03-07T13:58:51;12.10;1.00